sensor_id;sensor_type;location;lat;lon;timestamp;P1;durP1;ratioP1;P2;durP2;ratioP2
65924;SDS011;66010;52.084;5.412;2023-06-14T00:01:13;6.97;;;2.70;;
65924;SDS011;66010;52.084;5.412;2023-06-14T00:06:07;8.23;;;3.10;;
65924;SDS011;66010;52.084;5.412;2023-06-14T00:08:33;8.32;;;2.90;;
65924;SDS011;66010;52.084;5.412;2023-06-14T00:11:00;7.63;;;2.60;;
65924;SDS011;66010;52.084;5.412;2023-06-14T00:13:26;8.27;;;2.80;;
65924;SDS011;66010;52.084;5.412;2023-06-14T00:15:53;9.18;;;3.28;;
65924;SDS011;66010;52.084;5.412;2023-06-14T00:18:21;5.55;;;2.53;;
65924;SDS011;66010;52.084;5.412;2023-06-14T00:20:50;8.27;;;3.22;;
65924;SDS011;66010;52.084;5.412;2023-06-14T00:23:18;7.53;;;3.03;;
65924;SDS011;66010;52.084;5.412;2023-06-14T00:25:45;9.32;;;3.08;;
65924;SDS011;66010;52.084;5.412;2023-06-14T00:28:11;9.95;;;2.83;;
65924;SDS011;66010;52.084;5.412;2023-06-14T00:30:38;7.20;;;2.90;;
65924;SDS011;66010;52.084;5.412;2023-06-14T00:33:04;9.63;;;2.90;;
65924;SDS011;66010;52.084;5.412;2023-06-14T00:35:31;8.30;;;3.00;;
65924;SDS011;66010;52.084;5.412;2023-06-14T00:37:57;6.68;;;2.72;;
65924;SDS011;66010;52.084;5.412;2023-06-14T00:40:25;8.77;;;3.03;;
65924;SDS011;66010;52.084;5.412;2023-06-14T00:42:52;7.90;;;2.92;;
65924;SDS011;66010;52.084;5.412;2023-06-14T00:45:19;6.80;;;2.83;;
65924;SDS011;66010;52.084;5.412;2023-06-14T00:47:46;8.43;;;3.00;;
65924;SDS011;66010;52.084;5.412;2023-06-14T00:50:15;6.75;;;2.70;;
65924;SDS011;66010;52.084;5.412;2023-06-14T00:52:41;7.70;;;2.80;;
65924;SDS011;66010;52.084;5.412;2023-06-14T00:55:08;10.57;;;3.17;;
65924;SDS011;66010;52.084;5.412;2023-06-14T00:57:35;8.23;;;2.92;;
65924;SDS011;66010;52.084;5.412;2023-06-14T01:00:04;9.02;;;2.92;;
65924;SDS011;66010;52.084;5.412;2023-06-14T01:02:38;8.73;;;2.70;;
65924;SDS011;66010;52.084;5.412;2023-06-14T01:05:08;6.82;;;2.53;;
65924;SDS011;66010;52.084;5.412;2023-06-14T01:15:17;7.45;;;3.22;;
65924;SDS011;66010;52.084;5.412;2023-06-14T01:17:44;9.40;;;3.35;;
65924;SDS011;66010;52.084;5.412;2023-06-14T01:20:13;6.88;;;2.90;;
65924;SDS011;66010;52.084;5.412;2023-06-14T01:22:50;7.65;;;2.80;;
65924;SDS011;66010;52.084;5.412;2023-06-14T01:25:16;7.05;;;2.90;;
65924;SDS011;66010;52.084;5.412;2023-06-14T01:27:44;7.30;;;2.88;;
65924;SDS011;66010;52.084;5.412;2023-06-14T01:30:10;9.32;;;3.10;;
65924;SDS011;66010;52.084;5.412;2023-06-14T01:32:38;11.23;;;2.80;;
65924;SDS011;66010;52.084;5.412;2023-06-14T01:35:05;7.53;;;2.63;;
65924;SDS011;66010;52.084;5.412;2023-06-14T01:37:32;7.38;;;2.70;;
65924;SDS011;66010;52.084;5.412;2023-06-14T01:40:00;8.48;;;2.95;;
65924;SDS011;66010;52.084;5.412;2023-06-14T01:42:27;8.13;;;2.95;;
65924;SDS011;66010;52.084;5.412;2023-06-14T01:44:53;8.23;;;2.97;;
65924;SDS011;66010;52.084;5.412;2023-06-14T01:47:21;8.60;;;2.90;;
65924;SDS011;66010;52.084;5.412;2023-06-14T01:49:47;7.20;;;2.65;;
65924;SDS011;66010;52.084;5.412;2023-06-14T01:52:14;8.38;;;2.90;;
65924;SDS011;66010;52.084;5.412;2023-06-14T01:54:42;5.65;;;2.63;;
65924;SDS011;66010;52.084;5.412;2023-06-14T01:57:08;9.05;;;2.90;;
65924;SDS011;66010;52.084;5.412;2023-06-14T01:59:37;9.05;;;3.00;;
65924;SDS011;66010;52.084;5.412;2023-06-14T02:02:03;9.63;;;2.88;;
65924;SDS011;66010;52.084;5.412;2023-06-14T02:04:31;8.52;;;3.20;;
65924;SDS011;66010;52.084;5.412;2023-06-14T02:06:57;8.88;;;3.05;;
65924;SDS011;66010;52.084;5.412;2023-06-14T02:09:24;8.60;;;2.97;;
65924;SDS011;66010;52.084;5.412;2023-06-14T02:11:53;6.15;;;2.53;;
65924;SDS011;66010;52.084;5.412;2023-06-14T02:14:20;8.02;;;2.80;;
65924;SDS011;66010;52.084;5.412;2023-06-14T02:16:46;7.22;;;2.83;;
65924;SDS011;66010;52.084;5.412;2023-06-14T02:19:16;6.78;;;2.92;;
65924;SDS011;66010;52.084;5.412;2023-06-14T02:21:42;8.07;;;2.80;;
65924;SDS011;66010;52.084;5.412;2023-06-14T02:24:11;9.40;;;2.97;;
65924;SDS011;66010;52.084;5.412;2023-06-14T02:26:38;9.02;;;2.80;;
65924;SDS011;66010;52.084;5.412;2023-06-14T02:29:05;8.85;;;2.83;;
65924;SDS011;66010;52.084;5.412;2023-06-14T02:31:35;7.47;;;2.67;;
65924;SDS011;66010;52.084;5.412;2023-06-14T02:34:02;7.55;;;3.03;;
65924;SDS011;66010;52.084;5.412;2023-06-14T02:36:28;6.55;;;3.03;;
65924;SDS011;66010;52.084;5.412;2023-06-14T02:38:59;8.23;;;2.78;;
65924;SDS011;66010;52.084;5.412;2023-06-14T02:41:26;6.75;;;2.80;;
65924;SDS011;66010;52.084;5.412;2023-06-14T02:43:53;8.40;;;2.78;;
65924;SDS011;66010;52.084;5.412;2023-06-14T02:46:19;8.35;;;2.70;;
65924;SDS011;66010;52.084;5.412;2023-06-14T02:48:48;7.63;;;2.80;;
65924;SDS011;66010;52.084;5.412;2023-06-14T02:51:15;7.10;;;2.80;;
65924;SDS011;66010;52.084;5.412;2023-06-14T02:53:41;7.13;;;2.92;;
65924;SDS011;66010;52.084;5.412;2023-06-14T02:56:08;7.97;;;3.13;;
65924;SDS011;66010;52.084;5.412;2023-06-14T02:58:35;8.00;;;3.03;;
65924;SDS011;66010;52.084;5.412;2023-06-14T03:01:02;5.75;;;2.63;;
65924;SDS011;66010;52.084;5.412;2023-06-14T03:03:29;6.93;;;2.53;;
65924;SDS011;66010;52.084;5.412;2023-06-14T03:05:56;6.10;;;3.00;;
65924;SDS011;66010;52.084;5.412;2023-06-14T03:08:26;7.57;;;2.92;;
65924;SDS011;66010;52.084;5.412;2023-06-14T03:10:58;7.63;;;2.97;;
65924;SDS011;66010;52.084;5.412;2023-06-14T03:13:25;8.57;;;2.60;;
65924;SDS011;66010;52.084;5.412;2023-06-14T03:15:53;6.97;;;2.70;;
65924;SDS011;66010;52.084;5.412;2023-06-14T03:18:23;7.47;;;2.83;;
65924;SDS011;66010;52.084;5.412;2023-06-14T03:20:54;8.50;;;3.03;;
65924;SDS011;66010;52.084;5.412;2023-06-14T03:23:24;8.90;;;3.03;;
65924;SDS011;66010;52.084;5.412;2023-06-14T03:25:54;7.50;;;2.90;;
65924;SDS011;66010;52.084;5.412;2023-06-14T03:28:20;7.88;;;2.67;;
65924;SDS011;66010;52.084;5.412;2023-06-14T03:30:47;9.27;;;3.00;;
65924;SDS011;66010;52.084;5.412;2023-06-14T03:33:14;8.25;;;2.80;;
65924;SDS011;66010;52.084;5.412;2023-06-14T03:35:42;7.10;;;2.83;;
65924;SDS011;66010;52.084;5.412;2023-06-14T03:38:09;7.03;;;2.70;;
65924;SDS011;66010;52.084;5.412;2023-06-14T03:40:35;6.95;;;2.42;;
65924;SDS011;66010;52.084;5.412;2023-06-14T03:43:03;7.93;;;2.90;;
65924;SDS011;66010;52.084;5.412;2023-06-14T03:45:30;8.98;;;2.85;;
65924;SDS011;66010;52.084;5.412;2023-06-14T03:47:58;8.20;;;2.78;;
65924;SDS011;66010;52.084;5.412;2023-06-14T03:50:29;10.13;;;2.88;;
65924;SDS011;66010;52.084;5.412;2023-06-14T03:52:55;8.73;;;2.83;;
65924;SDS011;66010;52.084;5.412;2023-06-14T03:55:22;7.57;;;2.90;;
65924;SDS011;66010;52.084;5.412;2023-06-14T03:58:11;7.75;;;2.80;;
65924;SDS011;66010;52.084;5.412;2023-06-14T04:00:39;9.57;;;3.13;;
65924;SDS011;66010;52.084;5.412;2023-06-14T04:03:06;7.80;;;2.63;;
65924;SDS011;66010;52.084;5.412;2023-06-14T04:05:34;9.38;;;2.90;;
65924;SDS011;66010;52.084;5.412;2023-06-14T04:08:01;7.90;;;2.65;;
65924;SDS011;66010;52.084;5.412;2023-06-14T04:10:30;6.60;;;2.60;;
65924;SDS011;66010;52.084;5.412;2023-06-14T04:12:57;8.45;;;2.78;;
65924;SDS011;66010;52.084;5.412;2023-06-14T04:15:23;8.10;;;2.83;;
65924;SDS011;66010;52.084;5.412;2023-06-14T04:17:52;9.20;;;3.20;;
65924;SDS011;66010;52.084;5.412;2023-06-14T04:20:20;7.55;;;3.03;;
65924;SDS011;66010;52.084;5.412;2023-06-14T04:22:48;7.75;;;2.90;;
65924;SDS011;66010;52.084;5.412;2023-06-14T04:25:15;7.15;;;2.80;;
65924;SDS011;66010;52.084;5.412;2023-06-14T04:28:07;8.90;;;2.97;;
65924;SDS011;66010;52.084;5.412;2023-06-14T04:30:35;8.48;;;3.05;;
65924;SDS011;66010;52.084;5.412;2023-06-14T04:33:05;7.40;;;3.20;;
65924;SDS011;66010;52.084;5.412;2023-06-14T04:35:32;9.25;;;2.90;;
65924;SDS011;66010;52.084;5.412;2023-06-14T04:37:59;8.73;;;2.90;;
65924;SDS011;66010;52.084;5.412;2023-06-14T04:40:26;8.85;;;2.80;;
65924;SDS011;66010;52.084;5.412;2023-06-14T04:42:53;7.50;;;2.85;;
65924;SDS011;66010;52.084;5.412;2023-06-14T04:45:20;7.95;;;3.25;;
65924;SDS011;66010;52.084;5.412;2023-06-14T04:47:49;11.10;;;3.05;;
65924;SDS011;66010;52.084;5.412;2023-06-14T04:50:17;11.25;;;3.08;;
65924;SDS011;66010;52.084;5.412;2023-06-14T04:52:44;7.10;;;3.05;;
65924;SDS011;66010;52.084;5.412;2023-06-14T04:55:11;8.80;;;2.92;;
65924;SDS011;66010;52.084;5.412;2023-06-14T04:57:37;12.93;;;3.58;;
65924;SDS011;66010;52.084;5.412;2023-06-14T05:00:05;10.32;;;3.05;;
65924;SDS011;66010;52.084;5.412;2023-06-14T05:02:33;6.65;;;2.90;;
65924;SDS011;66010;52.084;5.412;2023-06-14T05:05:00;11.18;;;3.20;;
65924;SDS011;66010;52.084;5.412;2023-06-14T05:07:28;6.68;;;2.72;;
65924;SDS011;66010;52.084;5.412;2023-06-14T05:12:22;8.02;;;3.00;;
65924;SDS011;66010;52.084;5.412;2023-06-14T05:14:49;8.50;;;3.10;;
65924;SDS011;66010;52.084;5.412;2023-06-14T05:17:19;7.78;;;2.90;;
65924;SDS011;66010;52.084;5.412;2023-06-14T05:19:46;8.98;;;3.10;;
65924;SDS011;66010;52.084;5.412;2023-06-14T05:22:13;10.07;;;3.00;;
65924;SDS011;66010;52.084;5.412;2023-06-14T05:24:39;8.98;;;2.90;;
65924;SDS011;66010;52.084;5.412;2023-06-14T05:27:06;10.50;;;2.65;;
65924;SDS011;66010;52.084;5.412;2023-06-14T05:29:33;6.93;;;2.75;;
65924;SDS011;66010;52.084;5.412;2023-06-14T05:31:59;8.75;;;2.95;;
65924;SDS011;66010;52.084;5.412;2023-06-14T05:34:26;7.60;;;2.63;;
65924;SDS011;66010;52.084;5.412;2023-06-14T05:36:53;7.68;;;2.60;;
65924;SDS011;66010;52.084;5.412;2023-06-14T05:39:19;9.82;;;2.65;;
65924;SDS011;66010;52.084;5.412;2023-06-14T05:41:46;8.38;;;2.50;;
65924;SDS011;66010;52.084;5.412;2023-06-14T05:44:15;9.02;;;2.92;;
65924;SDS011;66010;52.084;5.412;2023-06-14T05:46:42;7.03;;;2.67;;
65924;SDS011;66010;52.084;5.412;2023-06-14T05:49:08;8.40;;;2.88;;
65924;SDS011;66010;52.084;5.412;2023-06-14T05:51:35;7.28;;;2.50;;
65924;SDS011;66010;52.084;5.412;2023-06-14T05:54:01;7.55;;;2.88;;
65924;SDS011;66010;52.084;5.412;2023-06-14T05:56:28;7.35;;;2.60;;
65924;SDS011;66010;52.084;5.412;2023-06-14T05:58:54;6.35;;;2.45;;
65924;SDS011;66010;52.084;5.412;2023-06-14T06:01:21;6.88;;;2.75;;
65924;SDS011;66010;52.084;5.412;2023-06-14T06:03:48;6.07;;;2.30;;
65924;SDS011;66010;52.084;5.412;2023-06-14T06:06:14;7.95;;;2.67;;
65924;SDS011;66010;52.084;5.412;2023-06-14T06:08:42;8.77;;;2.63;;
65924;SDS011;66010;52.084;5.412;2023-06-14T06:11:09;7.13;;;2.72;;
65924;SDS011;66010;52.084;5.412;2023-06-14T06:13:36;7.00;;;2.45;;
65924;SDS011;66010;52.084;5.412;2023-06-14T06:16:03;5.78;;;2.53;;
65924;SDS011;66010;52.084;5.412;2023-06-14T06:18:29;5.65;;;2.40;;
65924;SDS011;66010;52.084;5.412;2023-06-14T06:20:56;7.72;;;2.55;;
65924;SDS011;66010;52.084;5.412;2023-06-14T06:23:23;7.15;;;2.60;;
65924;SDS011;66010;52.084;5.412;2023-06-14T06:25:50;8.07;;;2.28;;
65924;SDS011;66010;52.084;5.412;2023-06-14T06:28:16;6.88;;;2.63;;
65924;SDS011;66010;52.084;5.412;2023-06-14T06:30:43;8.23;;;2.63;;
65924;SDS011;66010;52.084;5.412;2023-06-14T06:33:09;9.00;;;3.13;;
65924;SDS011;66010;52.084;5.412;2023-06-14T06:35:36;6.90;;;2.70;;
65924;SDS011;66010;52.084;5.412;2023-06-14T06:38:03;6.32;;;2.53;;
65924;SDS011;66010;52.084;5.412;2023-06-14T06:40:29;10.63;;;2.72;;
65924;SDS011;66010;52.084;5.412;2023-06-14T06:42:56;10.93;;;3.00;;
65924;SDS011;66010;52.084;5.412;2023-06-14T06:45:25;6.72;;;2.22;;
65924;SDS011;66010;52.084;5.412;2023-06-14T06:47:52;9.38;;;2.70;;
65924;SDS011;66010;52.084;5.412;2023-06-14T06:50:19;7.85;;;2.60;;
65924;SDS011;66010;52.084;5.412;2023-06-14T06:52:46;8.57;;;2.40;;
65924;SDS011;66010;52.084;5.412;2023-06-14T06:55:13;8.30;;;2.80;;
65924;SDS011;66010;52.084;5.412;2023-06-14T06:57:40;8.23;;;2.50;;
65924;SDS011;66010;52.084;5.412;2023-06-14T07:00:07;7.15;;;2.33;;
65924;SDS011;66010;52.084;5.412;2023-06-14T07:02:37;7.07;;;2.47;;
65924;SDS011;66010;52.084;5.412;2023-06-14T07:05:03;6.00;;;2.30;;
65924;SDS011;66010;52.084;5.412;2023-06-14T07:07:31;10.50;;;2.40;;
65924;SDS011;66010;52.084;5.412;2023-06-14T07:09:58;6.70;;;2.50;;
65924;SDS011;66010;52.084;5.412;2023-06-14T07:14:51;7.55;;;2.63;;
65924;SDS011;66010;52.084;5.412;2023-06-14T07:17:18;5.15;;;2.63;;
65924;SDS011;66010;52.084;5.412;2023-06-14T07:19:44;6.75;;;2.58;;
65924;SDS011;66010;52.084;5.412;2023-06-14T07:22:13;6.03;;;2.70;;
65924;SDS011;66010;52.084;5.412;2023-06-14T07:24:40;6.07;;;2.53;;
65924;SDS011;66010;52.084;5.412;2023-06-14T07:27:07;5.80;;;2.50;;
65924;SDS011;66010;52.084;5.412;2023-06-14T07:29:34;5.65;;;2.60;;
65924;SDS011;66010;52.084;5.412;2023-06-14T07:32:00;8.90;;;2.53;;
65924;SDS011;66010;52.084;5.412;2023-06-14T07:34:27;5.97;;;2.30;;
65924;SDS011;66010;52.084;5.412;2023-06-14T07:36:53;6.75;;;2.60;;
65924;SDS011;66010;52.084;5.412;2023-06-14T07:39:20;7.38;;;2.20;;
65924;SDS011;66010;52.084;5.412;2023-06-14T07:41:47;6.65;;;2.45;;
65924;SDS011;66010;52.084;5.412;2023-06-14T07:44:13;6.15;;;2.40;;
65924;SDS011;66010;52.084;5.412;2023-06-14T07:46:40;6.03;;;2.25;;
65924;SDS011;66010;52.084;5.412;2023-06-14T07:49:06;4.00;;;2.05;;
65924;SDS011;66010;52.084;5.412;2023-06-14T07:51:33;6.45;;;2.38;;
65924;SDS011;66010;52.084;5.412;2023-06-14T07:54:00;5.45;;;2.10;;
65924;SDS011;66010;52.084;5.412;2023-06-14T07:56:29;6.28;;;2.30;;
65924;SDS011;66010;52.084;5.412;2023-06-14T07:58:56;5.63;;;2.33;;
65924;SDS011;66010;52.084;5.412;2023-06-14T08:01:22;6.40;;;2.40;;
65924;SDS011;66010;52.084;5.412;2023-06-14T08:03:51;4.75;;;2.28;;
65924;SDS011;66010;52.084;5.412;2023-06-14T08:06:18;5.25;;;2.35;;
65924;SDS011;66010;52.084;5.412;2023-06-14T08:08:45;5.40;;;2.25;;
65924;SDS011;66010;52.084;5.412;2023-06-14T08:11:11;6.90;;;2.17;;
65924;SDS011;66010;52.084;5.412;2023-06-14T08:13:38;7.03;;;2.25;;
65924;SDS011;66010;52.084;5.412;2023-06-14T08:16:04;6.22;;;2.15;;
65924;SDS011;66010;52.084;5.412;2023-06-14T08:18:31;6.57;;;2.40;;
65924;SDS011;66010;52.084;5.412;2023-06-14T08:20:58;6.72;;;2.30;;
65924;SDS011;66010;52.084;5.412;2023-06-14T08:23:25;5.00;;;2.00;;
65924;SDS011;66010;52.084;5.412;2023-06-14T08:25:52;6.18;;;2.10;;
65924;SDS011;66010;52.084;5.412;2023-06-14T08:28:18;4.45;;;2.20;;
65924;SDS011;66010;52.084;5.412;2023-06-14T08:30:45;5.47;;;2.10;;
65924;SDS011;66010;52.084;5.412;2023-06-14T08:33:11;4.93;;;2.13;;
65924;SDS011;66010;52.084;5.412;2023-06-14T08:35:42;5.22;;;2.10;;
65924;SDS011;66010;52.084;5.412;2023-06-14T08:38:10;5.03;;;1.92;;
65924;SDS011;66010;52.084;5.412;2023-06-14T08:40:37;5.25;;;2.10;;
65924;SDS011;66010;52.084;5.412;2023-06-14T08:43:05;4.40;;;1.90;;
65924;SDS011;66010;52.084;5.412;2023-06-14T08:45:31;5.32;;;2.20;;
65924;SDS011;66010;52.084;5.412;2023-06-14T08:47:59;3.92;;;1.90;;
65924;SDS011;66010;52.084;5.412;2023-06-14T08:50:27;4.40;;;1.92;;
65924;SDS011;66010;52.084;5.412;2023-06-14T08:52:58;6.53;;;2.15;;
65924;SDS011;66010;52.084;5.412;2023-06-14T08:55:29;5.50;;;2.20;;
65924;SDS011;66010;52.084;5.412;2023-06-14T08:58:00;4.40;;;2.13;;
65924;SDS011;66010;52.084;5.412;2023-06-14T09:00:27;3.75;;;1.70;;
65924;SDS011;66010;52.084;5.412;2023-06-14T09:02:54;4.80;;;2.28;;
65924;SDS011;66010;52.084;5.412;2023-06-14T09:05:24;5.03;;;1.80;;
65924;SDS011;66010;52.084;5.412;2023-06-14T09:10:17;6.15;;;1.88;;
65924;SDS011;66010;52.084;5.412;2023-06-14T09:12:43;5.03;;;2.00;;
65924;SDS011;66010;52.084;5.412;2023-06-14T09:15:10;3.60;;;1.80;;
65924;SDS011;66010;52.084;5.412;2023-06-14T09:17:39;3.45;;;1.80;;
65924;SDS011;66010;52.084;5.412;2023-06-14T09:20:07;6.47;;;1.92;;
65924;SDS011;66010;52.084;5.412;2023-06-14T09:22:40;5.10;;;1.70;;
65924;SDS011;66010;52.084;5.412;2023-06-14T09:25:08;5.90;;;1.92;;
65924;SDS011;66010;52.084;5.412;2023-06-14T09:27:39;6.63;;;1.98;;
65924;SDS011;66010;52.084;5.412;2023-06-14T09:30:08;5.93;;;1.90;;
65924;SDS011;66010;52.084;5.412;2023-06-14T09:32:36;5.47;;;1.73;;
65924;SDS011;66010;52.084;5.412;2023-06-14T09:35:03;5.75;;;1.90;;
65924;SDS011;66010;52.084;5.412;2023-06-14T09:37:30;4.00;;;1.83;;
65924;SDS011;66010;52.084;5.412;2023-06-14T09:39:57;5.13;;;1.63;;
65924;SDS011;66010;52.084;5.412;2023-06-14T09:42:24;6.18;;;1.90;;
65924;SDS011;66010;52.084;5.412;2023-06-14T09:44:55;8.52;;;1.92;;
65924;SDS011;66010;52.084;5.412;2023-06-14T09:47:24;5.60;;;1.88;;
65924;SDS011;66010;52.084;5.412;2023-06-14T09:49:51;4.70;;;1.65;;
65924;SDS011;66010;52.084;5.412;2023-06-14T09:52:21;4.07;;;1.60;;
65924;SDS011;66010;52.084;5.412;2023-06-14T09:54:48;5.65;;;1.85;;
65924;SDS011;66010;52.084;5.412;2023-06-14T09:57:21;3.33;;;1.50;;
65924;SDS011;66010;52.084;5.412;2023-06-14T09:59:48;3.60;;;1.70;;
65924;SDS011;66010;52.084;5.412;2023-06-14T10:02:20;5.05;;;1.80;;
65924;SDS011;66010;52.084;5.412;2023-06-14T10:04:50;4.53;;;1.75;;
65924;SDS011;66010;52.084;5.412;2023-06-14T10:07:19;2.72;;;1.40;;
65924;SDS011;66010;52.084;5.412;2023-06-14T10:09:47;3.63;;;1.55;;
65924;SDS011;66010;52.084;5.412;2023-06-14T10:12:16;4.25;;;1.63;;
65924;SDS011;66010;52.084;5.412;2023-06-14T10:14:49;3.72;;;1.48;;
65924;SDS011;66010;52.084;5.412;2023-06-14T10:17:27;5.22;;;1.80;;
65924;SDS011;66010;52.084;5.412;2023-06-14T10:22:45;3.38;;;1.60;;
65924;SDS011;66010;52.084;5.412;2023-06-14T10:25:25;4.55;;;1.77;;
65924;SDS011;66010;52.084;5.412;2023-06-14T10:27:52;4.00;;;1.67;;
65924;SDS011;66010;52.084;5.412;2023-06-14T10:30:18;6.20;;;1.80;;
65924;SDS011;66010;52.084;5.412;2023-06-14T10:33:07;2.92;;;1.55;;
65924;SDS011;66010;52.084;5.412;2023-06-14T10:35:34;4.03;;;1.70;;
65924;SDS011;66010;52.084;5.412;2023-06-14T10:38:07;5.40;;;1.65;;
65924;SDS011;66010;52.084;5.412;2023-06-14T10:40:34;4.50;;;1.70;;
65924;SDS011;66010;52.084;5.412;2023-06-14T10:43:01;5.55;;;1.80;;
65924;SDS011;66010;52.084;5.412;2023-06-14T10:45:27;4.65;;;1.63;;
65924;SDS011;66010;52.084;5.412;2023-06-14T10:47:56;6.53;;;1.85;;
65924;SDS011;66010;52.084;5.412;2023-06-14T10:50:29;4.50;;;1.73;;
65924;SDS011;66010;52.084;5.412;2023-06-14T10:52:56;6.15;;;1.58;;
65924;SDS011;66010;52.084;5.412;2023-06-14T10:55:22;5.35;;;1.70;;
65924;SDS011;66010;52.084;5.412;2023-06-14T10:57:53;2.90;;;1.50;;
65924;SDS011;66010;52.084;5.412;2023-06-14T11:00:25;4.55;;;1.50;;
65924;SDS011;66010;52.084;5.412;2023-06-14T11:05:35;5.38;;;1.58;;
65924;SDS011;66010;52.084;5.412;2023-06-14T11:10:49;4.15;;;1.63;;
65924;SDS011;66010;52.084;5.412;2023-06-14T11:13:16;4.18;;;1.60;;
65924;SDS011;66010;52.084;5.412;2023-06-14T11:15:44;3.47;;;1.60;;
65924;SDS011;66010;52.084;5.412;2023-06-14T11:18:14;3.42;;;1.50;;
65924;SDS011;66010;52.084;5.412;2023-06-14T11:20:41;3.17;;;1.50;;
65924;SDS011;66010;52.084;5.412;2023-06-14T11:23:08;2.85;;;1.42;;
65924;SDS011;66010;52.084;5.412;2023-06-14T11:25:34;3.10;;;1.60;;
65924;SDS011;66010;52.084;5.412;2023-06-14T11:28:01;3.92;;;1.50;;
65924;SDS011;66010;52.084;5.412;2023-06-14T11:30:27;6.22;;;2.00;;
65924;SDS011;66010;52.084;5.412;2023-06-14T11:32:54;5.80;;;1.83;;
65924;SDS011;66010;52.084;5.412;2023-06-14T11:35:24;6.40;;;1.70;;
65924;SDS011;66010;52.084;5.412;2023-06-14T11:37:57;3.53;;;1.65;;
65924;SDS011;66010;52.084;5.412;2023-06-14T11:40:24;6.03;;;1.65;;
65924;SDS011;66010;52.084;5.412;2023-06-14T11:42:57;4.10;;;1.60;;
65924;SDS011;66010;52.084;5.412;2023-06-14T11:45:24;4.85;;;1.80;;
65924;SDS011;66010;52.084;5.412;2023-06-14T11:47:51;3.05;;;1.60;;
65924;SDS011;66010;52.084;5.412;2023-06-14T11:50:17;5.63;;;1.70;;
65924;SDS011;66010;52.084;5.412;2023-06-14T11:52:44;4.65;;;1.50;;
65924;SDS011;66010;52.084;5.412;2023-06-14T11:55:11;6.28;;;1.95;;
65924;SDS011;66010;52.084;5.412;2023-06-14T11:57:38;5.00;;;1.90;;
65924;SDS011;66010;52.084;5.412;2023-06-14T12:00:08;4.30;;;1.70;;
65924;SDS011;66010;52.084;5.412;2023-06-14T12:02:41;6.20;;;1.90;;
65924;SDS011;66010;52.084;5.412;2023-06-14T12:05:08;4.68;;;1.88;;
65924;SDS011;66010;52.084;5.412;2023-06-14T12:07:39;4.55;;;1.83;;
65924;SDS011;66010;52.084;5.412;2023-06-14T12:10:08;5.47;;;1.90;;
65924;SDS011;66010;52.084;5.412;2023-06-14T12:12:38;3.90;;;1.67;;
65924;SDS011;66010;52.084;5.412;2023-06-14T12:15:05;6.68;;;1.77;;
65924;SDS011;66010;52.084;5.412;2023-06-14T12:17:35;4.82;;;1.70;;
65924;SDS011;66010;52.084;5.412;2023-06-14T12:20:06;3.67;;;1.60;;
65924;SDS011;66010;52.084;5.412;2023-06-14T12:22:37;3.75;;;1.63;;
65924;SDS011;66010;52.084;5.412;2023-06-14T12:27:30;4.57;;;1.70;;
65924;SDS011;66010;52.084;5.412;2023-06-14T12:30:00;5.43;;;1.70;;
65924;SDS011;66010;52.084;5.412;2023-06-14T12:32:28;3.75;;;1.60;;
65924;SDS011;66010;52.084;5.412;2023-06-14T12:34:55;5.55;;;1.80;;
65924;SDS011;66010;52.084;5.412;2023-06-14T12:37:22;4.07;;;1.60;;
65924;SDS011;66010;52.084;5.412;2023-06-14T12:39:48;3.15;;;1.48;;
65924;SDS011;66010;52.084;5.412;2023-06-14T12:42:17;3.58;;;1.40;;
65924;SDS011;66010;52.084;5.412;2023-06-14T12:44:43;4.82;;;1.80;;
65924;SDS011;66010;52.084;5.412;2023-06-14T12:47:09;4.40;;;1.48;;
65924;SDS011;66010;52.084;5.412;2023-06-14T12:49:36;4.97;;;1.73;;
65924;SDS011;66010;52.084;5.412;2023-06-14T12:52:03;3.70;;;1.42;;
65924;SDS011;66010;52.084;5.412;2023-06-14T12:54:31;3.05;;;1.60;;
65924;SDS011;66010;52.084;5.412;2023-06-14T12:57:06;3.70;;;1.70;;
65924;SDS011;66010;52.084;5.412;2023-06-14T12:59:33;3.55;;;1.50;;
65924;SDS011;66010;52.084;5.412;2023-06-14T13:02:09;4.38;;;1.52;;
65924;SDS011;66010;52.084;5.412;2023-06-14T13:04:37;4.22;;;1.45;;
65924;SDS011;66010;52.084;5.412;2023-06-14T13:07:03;4.88;;;1.40;;
65924;SDS011;66010;52.084;5.412;2023-06-14T13:09:30;5.32;;;1.50;;
65924;SDS011;66010;52.084;5.412;2023-06-14T13:11:57;2.25;;;1.35;;
65924;SDS011;66010;52.084;5.412;2023-06-14T13:14:24;3.92;;;1.63;;
65924;SDS011;66010;52.084;5.412;2023-06-14T13:16:51;3.33;;;1.30;;
65924;SDS011;66010;52.084;5.412;2023-06-14T13:21:45;8.43;;;1.60;;
65924;SDS011;66010;52.084;5.412;2023-06-14T13:24:11;3.42;;;1.25;;
65924;SDS011;66010;52.084;5.412;2023-06-14T13:26:38;2.33;;;1.30;;
65924;SDS011;66010;52.084;5.412;2023-06-14T13:29:04;3.28;;;1.40;;
65924;SDS011;66010;52.084;5.412;2023-06-14T13:31:31;2.88;;;1.30;;
65924;SDS011;66010;52.084;5.412;2023-06-14T13:33:58;3.30;;;1.50;;
65924;SDS011;66010;52.084;5.412;2023-06-14T13:36:24;5.32;;;1.30;;
65924;SDS011;66010;52.084;5.412;2023-06-14T13:38:51;2.83;;;1.40;;
65924;SDS011;66010;52.084;5.412;2023-06-14T13:41:19;2.83;;;1.30;;
65924;SDS011;66010;52.084;5.412;2023-06-14T13:43:45;4.32;;;1.58;;
65924;SDS011;66010;52.084;5.412;2023-06-14T13:46:12;1.98;;;1.30;;
65924;SDS011;66010;52.084;5.412;2023-06-14T13:51:05;2.53;;;1.30;;
65924;SDS011;66010;52.084;5.412;2023-06-14T13:53:32;4.38;;;1.30;;
65924;SDS011;66010;52.084;5.412;2023-06-14T13:55:58;4.78;;;1.42;;
65924;SDS011;66010;52.084;5.412;2023-06-14T13:58:25;4.72;;;1.60;;
65924;SDS011;66010;52.084;5.412;2023-06-14T14:00:51;4.38;;;1.60;;
65924;SDS011;66010;52.084;5.412;2023-06-14T14:03:19;2.38;;;1.30;;
65924;SDS011;66010;52.084;5.412;2023-06-14T14:05:46;3.88;;;1.60;;
65924;SDS011;66010;52.084;5.412;2023-06-14T14:08:12;3.55;;;1.70;;
65924;SDS011;66010;52.084;5.412;2023-06-14T14:10:39;3.28;;;1.50;;
65924;SDS011;66010;52.084;5.412;2023-06-14T14:13:05;2.95;;;1.48;;
65924;SDS011;66010;52.084;5.412;2023-06-14T14:15:32;4.18;;;1.50;;
65924;SDS011;66010;52.084;5.412;2023-06-14T14:18:01;5.75;;;1.65;;
65924;SDS011;66010;52.084;5.412;2023-06-14T14:22:54;4.95;;;1.55;;
65924;SDS011;66010;52.084;5.412;2023-06-14T14:25:21;5.43;;;1.60;;
65924;SDS011;66010;52.084;5.412;2023-06-14T14:27:47;5.70;;;1.42;;
65924;SDS011;66010;52.084;5.412;2023-06-14T14:30:14;6.55;;;1.60;;
65924;SDS011;66010;52.084;5.412;2023-06-14T14:32:43;5.28;;;1.60;;
65924;SDS011;66010;52.084;5.412;2023-06-14T14:35:10;3.25;;;1.50;;
65924;SDS011;66010;52.084;5.412;2023-06-14T14:37:38;2.90;;;1.30;;
65924;SDS011;66010;52.084;5.412;2023-06-14T14:40:04;6.53;;;1.70;;
65924;SDS011;66010;52.084;5.412;2023-06-14T14:42:31;4.72;;;1.50;;
65924;SDS011;66010;52.084;5.412;2023-06-14T14:44:58;3.50;;;1.40;;
65924;SDS011;66010;52.084;5.412;2023-06-14T14:47:24;5.65;;;1.60;;
65924;SDS011;66010;52.084;5.412;2023-06-14T14:49:51;3.55;;;1.50;;
65924;SDS011;66010;52.084;5.412;2023-06-14T14:52:18;3.30;;;1.30;;
65924;SDS011;66010;52.084;5.412;2023-06-14T14:54:50;3.00;;;1.45;;
65924;SDS011;66010;52.084;5.412;2023-06-14T14:57:16;4.20;;;1.60;;
65924;SDS011;66010;52.084;5.412;2023-06-14T14:59:43;2.75;;;1.50;;
65924;SDS011;66010;52.084;5.412;2023-06-14T15:02:10;3.47;;;1.40;;
65924;SDS011;66010;52.084;5.412;2023-06-14T15:07:03;3.90;;;1.40;;
65924;SDS011;66010;52.084;5.412;2023-06-14T15:09:30;3.65;;;1.23;;
65924;SDS011;66010;52.084;5.412;2023-06-14T15:11:57;3.97;;;1.50;;
65924;SDS011;66010;52.084;5.412;2023-06-14T15:14:23;3.58;;;1.48;;
65924;SDS011;66010;52.084;5.412;2023-06-14T15:16:50;2.80;;;1.42;;
65924;SDS011;66010;52.084;5.412;2023-06-14T15:19:17;3.20;;;1.40;;
65924;SDS011;66010;52.084;5.412;2023-06-14T15:21:44;6.00;;;1.33;;
65924;SDS011;66010;52.084;5.412;2023-06-14T15:24:11;3.90;;;1.48;;
65924;SDS011;66010;52.084;5.412;2023-06-14T15:26:37;2.85;;;1.33;;
65924;SDS011;66010;52.084;5.412;2023-06-14T15:29:04;4.68;;;1.42;;